Time;durP1;ratioP1;P1;durP2;ratioP2;P2;SDS_P1;SDS_P2;PMS_P1;PMS_P2;Temp;Humidity;BMP_temperature;BMP_pressure;BME280_temperature;BME280_humidity;BME280_pressure;Samples;Min_cycle;Max_cycle;Signal;HPM_P1;HPM_P2
2022/08/09 00:00:25;;;;;;;7.00;4.95;;;14.60;99.90;;;;;;6130044;23;20036;-76
2022/08/09 00:02:51;;;;;;;5.07;4.53;;;14.70;99.90;;;;;;6178594;23;20099;-77
2022/08/09 00:05:17;;;;;;;5.43;3.78;;;14.60;99.90;;;;;;6178871;23;20306;-76
2022/08/09 00:07:43;;;;;;;5.95;4.50;;;14.40;99.90;;;;;;6155856;23;20343;-75
2022/08/09 00:10:09;;;;;;;4.45;3.58;;;14.30;99.90;;;;;;6131710;23;20020;-75
2022/08/09 00:12:35;;;;;;;5.00;4.50;;;14.20;99.90;;;;;;6131805;23;20023;-76
2022/08/09 00:15:00;;;;;;;4.75;4.10;;;14.20;99.90;;;;;;6156320;23;20017;-76
2022/08/09 00:17:26;;;;;;;7.22;4.32;;;14.30;99.90;;;;;;6181698;23;20021;-76
2022/08/09 00:19:52;;;;;;;5.78;4.65;;;14.30;99.90;;;;;;6155715;23;20013;-76
2022/08/09 00:22:17;;;;;;;5.47;4.90;;;14.30;99.90;;;;;;6132275;23;20024;-77
2022/08/09 00:24:43;;;;;;;4.20;3.80;;;14.20;99.90;;;;;;6180865;23;20013;-77
2022/08/09 00:27:09;;;;;;;4.68;3.05;;;14.20;99.90;;;;;;6181192;23;20028;-76
2022/08/09 00:29:34;;;;;;;5.38;4.15;;;14.10;99.90;;;;;;6131615;23;20071;-76
2022/08/09 00:32:00;;;;;;;5.13;4.57;;;14.10;99.90;;;;;;6131627;23;20315;-75
2022/08/09 00:34:26;;;;;;;6.47;5.40;;;14.20;99.90;;;;;;6131823;23;20020;-75
2022/08/09 00:36:52;;;;;;;5.57;4.75;;;14.10;99.90;;;;;;6107465;23;20342;-76
2022/08/09 00:39:17;;;;;;;4.45;4.05;;;14.10;99.90;;;;;;6180840;23;20013;-75
2022/08/09 00:41:44;;;;;;;3.25;2.92;;;14.10;99.90;;;;;;6156535;23;20009;-76
2022/08/09 00:44:10;;;;;;;3.40;3.10;;;13.90;99.90;;;;;;6160509;23;20027;-75
2022/08/09 00:46:35;;;;;;;3.42;2.88;;;13.90;99.90;;;;;;6185763;23;20017;-76
2022/08/09 00:49:01;;;;;;;3.38;2.50;;;14.00;99.90;;;;;;6135498;23;20016;-75
2022/08/09 00:51:27;;;;;;;2.22;1.80;;;14.00;99.90;;;;;;6158991;23;20012;-76
2022/08/09 00:53:53;;;;;;;2.05;1.52;;;13.90;99.90;;;;;;6159495;23;20017;-75
2022/08/09 00:56:19;;;;;;;2.80;1.40;;;13.70;99.90;;;;;;6158462;23;20024;-75
2022/08/09 00:58:45;;;;;;;1.60;1.45;;;13.60;99.90;;;;;;6183402;23;20023;-76
2022/08/09 01:01:16;;;;;;;1.58;1.38;;;13.60;99.90;;;;;;6157798;23;20016;-76
2022/08/09 01:03:56;;;;;;;3.78;1.40;;;13.60;99.90;;;;;;6183438;23;20111;-75
2022/08/09 01:06:51;;;;;;;3.70;1.48;;;13.50;99.90;;;;;;6183475;23;20322;-75
2022/08/09 01:09:37;;;;;;;34.00;2.50;;;13.60;99.90;;;;;;6178870;23;20024;-75
2022/08/09 01:12:02;;;;;;;14.77;1.95;;;13.60;99.90;;;;;;6157446;23;20009;-76
2022/08/09 01:14:39;;;;;;;23.08;2.63;;;13.60;99.90;;;;;;6183417;23;20008;-75
2022/08/09 01:17:18;;;;;;;31.30;3.03;;;13.70;99.90;;;;;;6184106;23;20009;-75
2022/08/09 01:20:07;;;;;;;32.70;2.42;;;13.60;99.90;;;;;;6158713;23;20453;-75
2022/08/09 01:23:05;;;;;;;44.30;3.25;;;13.50;99.90;;;;;;6183550;23;20044;-76
2022/08/09 01:25:39;;;;;;;13.77;2.30;;;13.40;99.90;;;;;;6183777;23;20017;-75
2022/08/09 01:28:08;;;;;;;13.02;2.55;;;13.50;99.90;;;;;;6184192;23;20019;-75
2022/08/09 01:30:36;;;;;;;8.02;2.50;;;13.40;99.90;;;;;;6159955;23;20017;-76
2022/08/09 01:33:07;;;;;;;7.00;2.60;;;13.40;99.90;;;;;;6185797;23;20051;-75
2022/08/09 01:35:39;;;;;;;29.30;2.30;;;13.30;99.90;;;;;;6185674;23;20013;-76
2022/08/09 01:38:12;;;;;;;62.13;5.93;;;13.50;99.90;;;;;;6161180;23;20039;-76
2022/08/09 01:40:45;;;;;;;37.13;2.47;;;13.60;99.90;;;;;;6186829;23;20027;-75
2022/08/09 01:43:12;;;;;;;14.73;2.15;;;13.70;99.90;;;;;;6162712;23;20031;-76
2022/08/09 01:45:39;;;;;;;4.43;2.72;;;13.80;99.90;;;;;;6186910;23;20500;-76
2022/08/09 01:48:07;;;;;;;14.50;3.03;;;13.70;99.90;;;;;;6162894;23;20044;-77
2022/08/09 01:50:34;;;;;;;23.45;2.95;;;13.70;99.90;;;;;;6163389;23;20009;-76
2022/08/09 01:53:01;;;;;;;5.05;2.30;;;13.70;99.90;;;;;;6187602;23;20019;-76
2022/08/09 01:55:30;;;;;;;9.75;2.58;;;13.70;99.90;;;;;;6187633;23;20452;-76
2022/08/09 01:57:59;;;;;;;6.50;2.92;;;13.70;99.90;;;;;;6187426;23;20137;-76
2022/08/09 02:00:27;;;;;;;11.07;2.90;;;13.70;99.90;;;;;;6163313;23;20016;-78
2022/08/09 02:02:53;;;;;;;32.40;4.20;;;13.80;99.90;;;;;;6163334;23;20012;-77
2022/08/09 02:05:22;;;;;;;13.55;2.28;;;13.80;99.90;;;;;;6163192;23;20051;-76
2022/08/09 02:07:59;;;;;;;9.43;2.13;;;13.70;99.90;;;;;;6162485;23;20024;-76
2022/08/09 02:10:30;;;;;;;26.08;2.70;;;13.80;99.90;;;;;;6162544;23;20011;-76
2022/08/09 02:13:02;;;;;;;7.20;3.25;;;13.70;99.90;;;;;;6187620;23;20027;-76
2022/08/09 02:15:30;;;;;;;19.95;3.55;;;13.70;99.90;;;;;;6187315;23;20082;-76
2022/08/09 02:17:56;;;;;;;3.67;2.03;;;13.80;99.90;;;;;;6138380;23;20017;-77
2022/08/09 02:20:22;;;;;;;3.60;1.80;;;13.70;99.90;;;;;;6187316;23;20016;-77
2022/08/09 02:22:53;;;;;;;2.47;1.92;;;13.60;99.90;;;;;;6187329;23;20516;-76
2022/08/09 02:25:22;;;;;;;4.32;1.60;;;13.50;99.90;;;;;;6187439;23;20103;-76
2022/08/09 02:28:00;;;;;;;14.95;3.13;;;13.30;99.90;;;;;;6187343;23;20012;-77
2022/08/09 02:30:30;;;;;;;30.10;1.70;;;13.30;99.90;;;;;;6187448;23;20100;-77
2022/08/09 02:32:58;;;;;;;68.07;3.42;;;13.20;99.90;;;;;;6186962;23;20027;-77
2022/08/09 02:35:24;;;;;;;48.97;3.00;;;13.30;99.90;;;;;;6138067;23;20096;-77
2022/08/09 02:37:56;;;;;;;16.88;2.47;;;13.50;99.90;;;;;;6113919;23;20023;-77
2022/08/09 02:40:24;;;;;;;2.90;2.33;;;13.50;99.90;;;;;;6187612;23;20019;-76
2022/08/09 02:42:52;;;;;;;4.32;3.13;;;13.60;99.90;;;;;;6162326;23;20031;-77
2022/08/09 02:45:28;;;;;;;24.15;3.97;;;13.60;99.90;;;;;;6138389;23;20013;-77
2022/08/09 02:47:59;;;;;;;20.10;3.15;;;13.70;99.90;;;;;;6186688;23;20009;-77
2022/08/09 02:50:32;;;;;;;3.80;3.20;;;13.60;99.90;;;;;;6162408;23;20345;-79
2022/08/09 02:53:02;;;;;;;33.92;3.58;;;13.60;99.90;;;;;;6162188;23;20414;-77
2022/08/09 02:55:30;;;;;;;7.88;2.80;;;13.70;99.90;;;;;;6162768;23;20016;-77
2022/08/09 02:57:58;;;;;;;4.03;2.90;;;13.60;99.90;;;;;;6161871;23;20020;-77
2022/08/09 03:00:26;;;;;;;11.82;1.60;;;13.60;99.90;;;;;;6138148;23;20012;-78
2022/08/09 03:02:54;;;;;;;2.78;1.80;;;13.60;99.90;;;;;;6187445;23;20016;-77
2022/08/09 03:05:21;;;;;;;7.97;1.90;;;13.60;99.90;;;;;;6162508;23;20088;-77
2022/08/09 03:07:50;;;;;;;4.93;1.80;;;13.50;99.90;;;;;;6186770;23;20009;-77
2022/08/09 03:10:16;;;;;;;5.45;3.88;;;13.50;99.90;;;;;;6162149;23;20454;-76
2022/08/09 03:12:43;;;;;;;5.43;3.50;;;13.40;99.90;;;;;;6161286;23;20051;-76
2022/08/09 03:15:11;;;;;;;6.53;3.17;;;13.30;99.90;;;;;;6162206;23;20013;-77
2022/08/09 03:17:37;;;;;;;29.75;3.28;;;13.40;99.90;;;;;;6137657;23;20024;-76
2022/08/09 03:20:06;;;;;;;5.45;2.28;;;13.20;99.90;;;;;;6161140;23;20483;-75
2022/08/09 03:22:35;;;;;;;4.63;1.88;;;13.20;99.90;;;;;;6137331;23;20067;-75
2022/08/09 03:25:01;;;;;;;8.35;2.28;;;13.20;99.90;;;;;;6185714;23;20015;-75
2022/08/09 03:27:29;;;;;;;24.48;2.60;;;13.00;99.90;;;;;;6136232;23;20440;-75
2022/08/09 03:29:56;;;;;;;15.75;2.42;;;13.00;99.90;;;;;;6184505;23;20092;-75
2022/08/09 03:32:24;;;;;;;14.85;2.50;;;12.90;99.90;;;;;;6160505;23;20092;-76
2022/08/09 03:34:49;;;;;;;23.23;2.53;;;12.90;99.90;;;;;;6186256;23;20012;-75
2022/08/09 03:37:15;;;;;;;17.88;1.95;;;12.80;99.90;;;;;;6160146;23;20071;-76
2022/08/09 03:39:41;;;;;;;16.63;2.00;;;12.90;99.90;;;;;;6135164;23;20013;-75
2022/08/09 03:42:06;;;;;;;23.55;1.88;;;12.90;99.90;;;;;;6184091;23;20008;-75
2022/08/09 03:44:32;;;;;;;27.45;2.03;;;12.80;99.90;;;;;;6159355;23;20103;-75
2022/08/09 03:46:58;;;;;;;32.00;3.10;;;12.70;99.90;;;;;;6134671;23;20027;-76
2022/08/09 03:49:27;;;;;;;30.85;3.00;;;12.80;99.90;;;;;;6184408;23;20560;-77
2022/08/09 03:51:57;;;;;;;31.67;2.28;;;12.80;99.90;;;;;;6134795;23;20012;-77
2022/08/09 03:54:25;;;;;;;101.25;6.63;;;12.90;99.90;;;;;;6184338;23;20024;-77
2022/08/09 03:56:52;;;;;;;64.70;3.60;;;12.90;99.90;;;;;;6160145;23;20096;-77
2022/08/09 03:59:18;;;;;;;35.15;2.38;;;12.90;99.90;;;;;;6185302;23;20012;-77
2022/08/09 04:01:45;;;;;;;30.20;2.25;;;12.40;99.90;;;;;;6185379;23;20008;-78
2022/08/09 04:04:12;;;;;;;35.05;3.17;;;13.00;99.90;;;;;;6135232;23;20013;-77
2022/08/09 04:06:38;;;;;;;53.05;3.72;;;13.00;99.90;;;;;;6111770;23;20009;-77
2022/08/09 04:09:06;;;;;;;21.65;2.45;;;13.00;99.90;;;;;;6184424;23;20017;-77
2022/08/09 04:11:53;;;;;;;25.90;2.75;;;13.10;99.90;;;;;;6160792;23;20119;-78
2022/08/09 04:14:21;;;;;;;28.02;2.22;;;13.10;99.90;;;;;;6160952;23;20028;-78
2022/08/09 04:16:47;;;;;;;27.42;2.10;;;13.20;99.90;;;;;;6160794;23;20070;-78
2022/08/09 04:19:13;;;;;;;10.57;1.50;;;13.30;99.90;;;;;;6112776;23;20627;-77
2022/08/09 04:21:39;;;;;;;5.93;2.08;;;13.40;99.90;;;;;;6162444;23;20099;-77
2022/08/09 04:24:05;;;;;;;11.82;1.67;;;13.50;99.90;;;;;;6137074;23;20095;-78
2022/08/09 04:26:31;;;;;;;36.65;2.75;;;13.60;99.90;;;;;;6137926;23;20020;-77
2022/08/09 04:28:57;;;;;;;32.78;2.95;;;13.50;99.90;;;;;;6136767;23;20491;-77
2022/08/09 04:31:22;;;;;;;94.47;4.70;;;13.50;99.90;;;;;;6186781;23;20016;-78
2022/08/09 04:33:48;;;;;;;65.22;3.67;;;13.40;99.90;;;;;;6137517;23;20347;-78
2022/08/09 04:36:14;;;;;;;49.78;3.83;;;13.40;99.90;;;;;;6137585;23;20027;-77
2022/08/09 04:38:39;;;;;;;12.68;2.20;;;13.40;99.90;;;;;;6113228;23;20087;-77
2022/08/09 04:41:05;;;;;;;51.58;3.33;;;13.30;99.90;;;;;;6187102;23;20318;-77
2022/08/09 04:43:31;;;;;;;21.58;2.00;;;13.30;99.90;;;;;;6161688;23;20091;-77
2022/08/09 04:45:59;;;;;;;47.05;3.40;;;13.20;99.90;;;;;;6161725;23;20321;-77
2022/08/09 04:48:25;;;;;;;30.15;2.47;;;13.20;99.90;;;;;;6186834;23;20008;-78
2022/08/09 04:50:51;;;;;;;26.73;1.98;;;13.20;99.90;;;;;;6137557;23;20031;-76
2022/08/09 04:53:17;;;;;;;55.53;3.85;;;13.20;99.90;;;;;;6136650;23;20044;-77
2022/08/09 04:55:43;;;;;;;9.88;2.45;;;13.20;99.90;;;;;;6137236;23;20013;-77
2022/08/09 04:58:09;;;;;;;60.03;4.32;;;13.30;99.90;;;;;;6158767;23;20071;-77
2022/08/09 05:00:34;;;;;;;32.92;3.42;;;13.60;99.90;;;;;;6161501;23;20016;-76
2022/08/09 05:03:04;;;;;;;37.65;4.22;;;13.80;99.90;;;;;;6160594;23;20044;-76
2022/08/09 05:05:30;;;;;;;30.35;2.53;;;13.70;99.90;;;;;;6186298;23;20402;-78
2022/08/09 05:07:57;;;;;;;24.42;2.30;;;13.70;99.90;;;;;;6161703;23;20071;-78
2022/08/09 05:10:23;;;;;;;27.35;2.47;;;13.60;99.90;;;;;;6162385;23;20020;-77
2022/08/09 05:12:49;;;;;;;14.52;1.85;;;13.60;99.90;;;;;;6161843;23;20838;-77
2022/08/09 05:15:15;;;;;;;11.98;2.08;;;13.50;99.90;;;;;;6164051;23;20096;-77
2022/08/09 05:17:41;;;;;;;3.05;2.10;;;13.50;99.90;;;;;;6188943;23;20071;-78
2022/08/09 05:20:08;;;;;;;3.80;2.50;;;13.60;99.90;;;;;;6163965;23;20023;-78
2022/08/09 05:22:34;;;;;;;3.97;2.83;;;13.70;99.90;;;;;;6139798;23;20071;-78
2022/08/09 05:25:03;;;;;;;2.67;2.42;;;13.70;99.90;;;;;;6188877;23;20087;-77
2022/08/09 05:27:28;;;;;;;4.97;2.90;;;13.80;99.90;;;;;;6164491;23;20051;-79
2022/08/09 05:29:54;;;;;;;4.80;3.40;;;14.00;99.90;;;;;;6115348;23;20013;-78
2022/08/09 05:32:21;;;;;;;4.70;3.30;;;14.00;99.90;;;;;;6163571;23;20028;-76
2022/08/09 05:34:47;;;;;;;4.43;3.53;;;14.00;99.90;;;;;;6188246;23;20066;-75
2022/08/09 05:37:12;;;;;;;5.93;4.50;;;14.10;99.90;;;;;;6187515;23;20020;-76
2022/08/09 05:39:41;;;;;;;6.47;4.45;;;14.30;99.90;;;;;;6139405;23;20404;-77
2022/08/09 05:42:16;;;;;;;6.38;4.57;;;14.30;99.90;;;;;;6186798;23;20023;-78
2022/08/09 05:44:42;;;;;;;5.13;4.60;;;14.40;99.90;;;;;;6112065;23;20017;-77
2022/08/09 05:47:08;;;;;;;6.30;4.78;;;14.70;99.90;;;;;;6183057;23;20013;-77
2022/08/09 05:49:33;;;;;;;6.90;5.57;;;14.90;99.90;;;;;;6134033;23;20147;-77
2022/08/09 05:51:59;;;;;;;9.15;5.70;;;15.00;99.90;;;;;;6133472;23;20017;-78
2022/08/09 05:54:25;;;;;;;8.73;5.55;;;15.20;99.90;;;;;;6109829;23;20013;-77
2022/08/09 05:56:50;;;;;;;8.15;5.72;;;15.10;99.90;;;;;;6183577;23;20084;-77
2022/08/09 05:59:17;;;;;;;7.57;5.50;;;15.30;99.90;;;;;;6133137;23;20024;-77
2022/08/09 06:01:43;;;;;;;9.02;5.95;;;15.40;99.90;;;;;;6110078;23;20017;-77
2022/08/09 06:04:09;;;;;;;16.92;6.25;;;15.50;99.90;;;;;;6182872;23;20024;-77
2022/08/09 06:06:34;;;;;;;8.73;6.18;;;15.80;99.90;;;;;;6134172;23;20020;-78
2022/08/09 06:09:00;;;;;;;7.57;5.35;;;15.80;99.90;;;;;;6133389;23;20315;-78
2022/08/09 06:11:26;;;;;;;8.23;5.10;;;16.00;99.90;;;;;;6133976;23;20024;-79
2022/08/09 06:13:52;;;;;;;8.25;5.68;;;16.00;99.90;;;;;;6133514;23;20015;-77
2022/08/09 06:16:17;;;;;;;9.73;6.15;;;16.10;99.90;;;;;;6109420;23;20021;-76
2022/08/09 06:18:43;;;;;;;8.57;5.82;;;16.40;99.90;;;;;;6182839;23;20016;-78
2022/08/09 06:21:09;;;;;;;8.20;5.55;;;16.50;99.90;;;;;;6133382;23;20013;-78
2022/08/09 06:23:34;;;;;;;9.30;6.20;;;16.50;99.90;;;;;;6109547;23;20442;-77
2022/08/09 06:26:00;;;;;;;9.43;6.32;;;16.50;99.90;;;;;;6133173;23;20021;-77
2022/08/09 06:28:26;;;;;;;10.43;5.95;;;16.50;99.90;;;;;;6133784;23;20013;-78
2022/08/09 06:30:52;;;;;;;8.63;6.20;;;16.60;99.90;;;;;;6134038;23;20028;-77
2022/08/09 06:33:18;;;;;;;10.60;5.97;;;16.90;99.90;;;;;;6132975;23;20020;-77
2022/08/09 06:35:43;;;;;;;10.73;5.57;;;16.70;99.90;;;;;;6134038;23;20017;-77
2022/08/09 06:38:09;;;;;;;8.18;6.15;;;17.00;99.90;;;;;;6132684;23;20013;-78
2022/08/09 06:40:35;;;;;;;7.55;6.43;;;17.20;99.90;;;;;;6133954;23;20083;-78
2022/08/09 06:43:00;;;;;;;8.32;6.50;;;17.30;99.90;;;;;;6137430;23;20053;-81
2022/08/09 06:45:27;;;;;;;7.00;5.20;;;17.30;99.90;;;;;;6159580;23;20439;-77
2022/08/09 06:47:52;;;;;;;7.50;5.97;;;17.60;99.90;;;;;;6159888;23;20438;-78
2022/08/09 06:50:18;;;;;;;8.02;5.55;;;17.70;99.90;;;;;;6132852;23;20033;-78
2022/08/09 06:52:44;;;;;;;8.63;5.30;;;17.80;99.90;;;;;;6158739;23;20047;-78
2022/08/09 06:55:15;;;;;;;8.55;5.18;;;17.90;99.90;;;;;;6157061;23;20013;-75
2022/08/09 06:57:41;;;;;;;7.32;5.47;;;18.10;99.90;;;;;;6182680;23;20045;-76
2022/08/09 07:00:07;;;;;;;5.63;4.68;;;18.10;99.90;;;;;;6182149;23;20017;-78
2022/08/09 07:02:33;;;;;;;5.93;4.63;;;18.10;99.90;;;;;;6158478;23;20013;-78
2022/08/09 07:04:59;;;;;;;4.43;3.55;;;18.40;99.90;;;;;;6182577;23;20020;-76
2022/08/09 07:07:25;;;;;;;5.47;3.10;;;18.20;99.90;;;;;;6182148;23;20017;-77
2022/08/09 07:09:51;;;;;;;4.78;2.85;;;18.30;99.90;;;;;;6133563;23;20043;-78
2022/08/09 07:12:17;;;;;;;2.75;2.53;;;18.20;99.90;;;;;;6157303;23;20095;-74
2022/08/09 07:14:42;;;;;;;5.78;3.10;;;18.30;99.90;;;;;;6156430;23;20020;-72
2022/08/09 07:17:08;;;;;;;5.28;2.80;;;18.40;99.90;;;;;;6156840;23;20307;-72
2022/08/09 07:19:33;;;;;;;5.68;2.63;;;18.40;99.90;;;;;;6132205;23;20513;-73
2022/08/09 07:21:59;;;;;;;6.68;2.60;;;18.50;99.90;;;;;;6181525;23;20021;-73
2022/08/09 07:24:27;;;;;;;3.15;2.28;;;18.30;99.90;;;;;;6181022;23;20013;-73
2022/08/09 07:26:53;;;;;;;2.58;2.15;;;18.50;99.90;;;;;;6181298;23;20048;-73
2022/08/09 07:29:19;;;;;;;2.35;2.10;;;18.40;99.90;;;;;;6156121;23;20017;-73
2022/08/09 07:31:44;;;;;;;3.17;2.00;;;18.50;99.90;;;;;;6132475;23;20013;-73
2022/08/09 07:34:10;;;;;;;3.42;1.92;;;18.50;99.90;;;;;;6155946;23;20092;-73
2022/08/09 07:36:35;;;;;;;5.18;2.13;;;18.40;99.90;;;;;;6156862;23;20013;-73
2022/08/09 07:39:01;;;;;;;3.90;1.83;;;18.40;99.90;;;;;;6156104;23;20391;-73
2022/08/09 07:41:27;;;;;;;3.20;2.30;;;18.50;99.90;;;;;;6180653;23;20013;-73
2022/08/09 07:43:53;;;;;;;2.75;1.60;;;18.40;99.90;;;;;;6156918;23;20793;-73
2022/08/09 07:46:19;;;;;;;4.35;1.80;;;18.50;99.90;;;;;;6156217;23;20017;-74
2022/08/09 07:48:45;;;;;;;2.35;1.40;;;18.60;99.90;;;;;;6156903;23;20079;-72
2022/08/09 07:51:11;;;;;;;2.08;1.48;;;18.80;99.90;;;;;;6153455;23;20013;-73
2022/08/09 07:53:38;;;;;;;1.63;1.05;;;18.70;99.90;;;;;;6178821;23;20641;-73
2022/08/09 07:56:04;;;;;;;2.40;1.20;;;18.80;99.90;;;;;;6154170;23;20040;-74
2022/08/09 07:58:30;;;;;;;2.25;1.15;;;18.90;99.90;;;;;;6179399;23;20016;-77
2022/08/09 08:00:56;;;;;;;1.20;1.10;;;19.20;99.90;;;;;;6130366;23;20020;-78
2022/08/09 08:03:22;;;;;;;2.97;1.00;;;19.30;99.90;;;;;;6154178;23;20096;-77
2022/08/09 08:05:48;;;;;;;1.70;1.10;;;19.30;99.90;;;;;;6154699;23;20015;-77
2022/08/09 08:08:14;;;;;;;1.40;1.08;;;19.30;99.90;;;;;;6154464;23;20091;-78
2022/08/09 08:10:42;;;;;;;1.42;0.90;;;19.30;99.90;;;;;;6105558;23;20044;-77
2022/08/09 08:13:14;;;;;;;1.27;0.82;;;19.20;99.90;;;;;;6178654;23;20024;-78
2022/08/09 08:15:40;;;;;;;1.17;0.95;;;19.20;99.90;;;;;;6129596;23;20013;-77
2022/08/09 08:18:05;;;;;;;0.90;0.80;;;19.40;99.90;;;;;;6105286;23;20469;-76
2022/08/09 08:20:31;;;;;;;1.30;0.80;;;19.60;99.90;;;;;;6154101;23;20100;-77
2022/08/09 08:22:58;;;;;;;3.50;0.90;;;19.50;99.90;;;;;;6154673;23;20024;-78
2022/08/09 08:25:24;;;;;;;1.83;0.82;;;19.70;99.90;;;;;;6154023;23;20063;-78
2022/08/09 08:27:50;;;;;;;1.23;0.85;;;19.80;99.90;;;;;;6129889;23;20341;-77
2022/08/09 08:30:18;;;;;;;1.52;0.90;;;19.80;99.90;;;;;;6128530;23;20048;-78
2022/08/09 08:32:44;;;;;;;0.70;0.70;;;19.90;99.90;;;;;;6178828;23;20013;-77
2022/08/09 08:35:10;;;;;;;2.03;0.80;;;19.80;99.90;;;;;;6178111;23;20107;-79
2022/08/09 08:37:36;;;;;;;2.53;0.80;;;19.60;99.90;;;;;;6154810;23;20091;-79
2022/08/09 08:40:06;;;;;;;0.80;0.80;;;19.90;99.90;;;;;;6175987;23;20024;-75
2022/08/09 08:42:32;;;;;;;0.75;0.75;;;19.90;99.90;;;;;;6181021;23;20016;-78
2022/08/09 08:44:59;;;;;;;1.52;0.80;;;20.10;99.90;;;;;;6182158;23;20476;-78
2022/08/09 08:47:28;;;;;;;1.42;0.70;;;20.00;99.90;;;;;;6182994;23;20384;-76
2022/08/09 08:49:57;;;;;;;2.97;1.00;;;20.20;99.90;;;;;;6156663;23;20099;-78
2022/08/09 08:52:25;;;;;;;1.33;0.82;;;20.30;99.90;;;;;;6156000;23;20021;-77
2022/08/09 08:54:57;;;;;;;1.00;0.90;;;20.50;99.90;;;;;;6158056;23;20013;-79
2022/08/09 08:57:25;;;;;;;0.70;0.70;;;20.60;99.90;;;;;;6182649;23;20048;-78
2022/08/09 08:59:52;;;;;;;1.13;0.80;;;20.70;99.90;;;;;;6134806;23;20095;-77
2022/08/09 09:02:27;;;;;;;1.40;0.68;;;20.80;99.90;;;;;;6183187;23;20560;-79
2022/08/09 09:04:56;;;;;;;1.35;0.93;;;20.80;99.90;;;;;;6158231;23;20023;-77
2022/08/09 09:07:27;;;;;;;0.70;0.70;;;20.60;99.90;;;;;;6158768;23;20055;-78
2022/08/09 09:09:54;;;;;;;1.42;0.70;;;20.80;99.90;;;;;;6183189;23;20337;-78
2022/08/09 09:12:26;;;;;;;1.33;0.80;;;20.90;99.90;;;;;;6158295;23;20368;-77
2022/08/09 09:14:53;;;;;;;0.77;0.63;;;20.90;99.90;;;;;;6158316;23;20070;-79
2022/08/09 09:17:19;;;;;;;1.83;0.73;;;21.10;99.90;;;;;;6157396;23;20048;-78
2022/08/09 09:19:45;;;;;;;2.08;1.40;;;21.20;99.90;;;;;;6133860;23;20433;-78
2022/08/09 09:22:16;;;;;;;0.80;0.70;;;21.30;99.90;;;;;;6158078;23;20079;-76
2022/08/09 09:24:51;;;;;;;1.73;1.05;;;21.30;99.90;;;;;;6158426;23;20072;-73
2022/08/09 09:27:19;;;;;;;1.17;0.80;;;21.10;99.90;;;;;;6157349;23;20017;-74
2022/08/09 09:29:46;;;;;;;1.58;0.80;;;20.90;99.90;;;;;;6182668;23;20009;-75
2022/08/09 09:32:22;;;;;;;0.88;0.60;;;21.20;99.90;;;;;;6157413;23;20012;-74
2022/08/09 09:35:08;;;;;;;0.70;0.65;;;21.10;99.90;;;;;;6183000;23;20437;-75
2022/08/09 09:37:34;;;;;;;1.02;0.63;;;21.50;99.90;;;;;;6157531;23;20044;-75
2022/08/09 09:40:00;;;;;;;1.15;0.80;;;22.40;99.90;;;;;;6182782;23;20432;-75
2022/08/09 09:42:30;;;;;;;0.80;0.70;;;22.70;99.90;;;;;;6181640;23;20022;-76
2022/08/09 09:44:57;;;;;;;1.55;0.80;;;22.70;99.90;;;;;;6134290;23;20048;-75
2022/08/09 09:47:24;;;;;;;1.10;0.70;;;23.10;99.90;;;;;;6182259;23;20087;-76
2022/08/09 09:49:53;;;;;;;1.60;0.80;;;23.00;99.90;;;;;;6158129;23;20023;-74
2022/08/09 09:52:20;;;;;;;1.83;0.70;;;22.90;99.90;;;;;;6181994;23;20074;-75
2022/08/09 09:54:46;;;;;;;2.45;0.90;;;23.80;99.90;;;;;;6158205;23;20012;-75
2022/08/09 09:57:22;;;;;;;2.13;0.70;;;23.70;99.90;;;;;;6108532;23;20023;-76
2022/08/09 09:59:50;;;;;;;1.48;0.65;;;23.90;99.90;;;;;;6182336;23;20013;-75
2022/08/09 10:02:17;;;;;;;0.93;0.77;;;23.60;99.90;;;;;;6160253;23;20020;-80
2022/08/09 10:04:44;;;;;;;1.02;0.70;;;24.50;99.90;;;;;;6161596;23;20028;-80
2022/08/09 10:07:24;;;;;;;0.75;0.70;;;24.20;99.90;;;;;;6137084;23;20067;-80
2022/08/09 10:09:54;;;;;;;0.70;0.70;;;23.70;99.90;;;;;;6162240;23;20062;-80
2022/08/09 10:12:30;;;;;;;0.75;0.70;;;23.90;99.90;;;;;;6161469;23;20388;-78
2022/08/09 10:15:15;;;;;;;3.70;0.80;;;24.10;99.90;;;;;;6160765;23;20017;-77
2022/08/09 10:17:51;;;;;;;2.03;0.70;;;24.80;99.90;;;;;;6159445;23;20087;-76
2022/08/09 10:20:16;;;;;;;0.63;0.63;;;25.00;99.90;;;;;;6134884;23;20051;-77
2022/08/09 10:22:42;;;;;;;0.93;0.68;;;24.80;99.90;;;;;;6184172;23;20306;-79
2022/08/09 10:25:08;;;;;;;1.33;0.60;;;24.80;99.90;;;;;;6111257;23;20020;-78
2022/08/09 10:27:35;;;;;;;0.82;0.82;;;24.20;99.90;;;;;;6160418;23;20012;-78
2022/08/09 10:30:06;;;;;;;0.93;0.73;;;24.00;99.90;;;;;;6160391;23;20096;-79
2022/08/09 10:32:33;;;;;;;0.93;0.80;;;24.60;99.90;;;;;;6159830;23;20052;-78
2022/08/09 10:34:59;;;;;;;1.80;0.80;;;23.70;99.90;;;;;;6160458;23;20027;-78
2022/08/09 10:37:28;;;;;;;1.00;0.80;;;23.40;99.90;;;;;;6162353;23;20055;-79
2022/08/09 10:39:54;;;;;;;1.50;0.80;;;23.50;99.90;;;;;;6160998;23;20017;-79
2022/08/09 10:42:21;;;;;;;1.40;0.70;;;24.40;99.90;;;;;;6135403;23;20834;-78
2022/08/09 10:45:01;;;;;;;2.45;0.77;;;24.50;99.90;;;;;;6185223;23;20092;-80
2022/08/09 10:47:38;;;;;;;0.60;0.60;;;24.70;99.90;;;;;;6161393;23;20040;-79
2022/08/09 10:50:25;;;;;;;0.60;0.60;;;24.80;99.90;;;;;;6185789;23;20055;-78
2022/08/09 10:52:57;;;;;;;1.02;0.88;;;24.30;99.90;;;;;;6161216;23;20017;-80
2022/08/09 10:55:24;;;;;;;1.00;0.80;;;24.80;99.90;;;;;;6160207;23;20013;-80
2022/08/09 10:57:50;;;;;;;1.42;0.90;;;24.70;99.90;;;;;;6185915;23;20475;-80
2022/08/09 11:00:35;;;;;;;2.97;1.00;;;24.40;99.90;;;;;;6136251;23;20129;-80
2022/08/09 11:03:01;;;;;;;0.70;0.70;;;25.00;99.90;;;;;;6161106;23;20020;-80
2022/08/09 11:05:27;;;;;;;1.70;0.98;;;24.80;99.90;;;;;;6185586;23;20091;-79
2022/08/09 11:07:53;;;;;;;1.17;0.80;;;24.60;99.90;;;;;;6160326;23;20055;-80
2022/08/09 11:10:41;;;;;;;1.92;0.75;;;24.50;99.90;;;;;;6159042;23;20066;-76
2022/08/09 11:13:18;;;;;;;0.93;0.82;;;23.80;99.90;;;;;;6183740;23;20391;-76
2022/08/09 11:15:44;;;;;;;1.95;0.77;;;24.60;99.90;;;;;;6183826;23;20008;-76
2022/08/09 11:18:11;;;;;;;0.75;0.70;;;24.40;99.90;;;;;;6159237;23;20397;-78
2022/08/09 11:20:43;;;;;;;1.00;0.90;;;24.70;99.90;;;;;;6184036;23;20020;-79
2022/08/09 11:23:12;;;;;;;0.73;0.73;;;25.10;99.90;;;;;;6160173;23;20640;-80
2022/08/09 11:25:40;;;;;;;0.60;0.60;;;25.00;99.90;;;;;;6184227;23;20074;-79
2022/08/09 11:28:30;;;;;;;0.93;0.90;;;24.70;99.90;;;;;;6185114;23;20020;-79
2022/08/09 11:30:56;;;;;;;0.70;0.65;;;24.40;99.90;;;;;;6159805;23;20023;-78
2022/08/09 11:33:39;;;;;;;0.88;0.88;;;23.50;99.90;;;;;;6159969;23;20044;-78
2022/08/09 11:36:05;;;;;;;0.87;0.80;;;23.10;99.90;;;;;;6183708;23;20031;-79
2022/08/09 11:38:33;;;;;;;1.88;1.10;;;23.10;99.90;;;;;;6160182;23;20254;-78
2022/08/09 11:41:15;;;;;;;0.90;0.80;;;23.50;99.90;;;;;;6160279;23;20022;-79
2022/08/09 11:43:48;;;;;;;1.13;0.90;;;23.30;99.90;;;;;;6159500;23;20063;-80
2022/08/09 11:46:14;;;;;;;1.63;0.82;;;23.40;99.90;;;;;;6136352;23;20020;-80
2022/08/09 11:48:49;;;;;;;1.20;0.90;;;23.20;99.90;;;;;;6160213;23;20051;-80
2022/08/09 11:51:15;;;;;;;1.17;0.77;;;23.70;99.90;;;;;;6160606;23;20794;-79
2022/08/09 11:53:42;;;;;;;1.40;0.80;;;23.40;99.90;;;;;;6159595;23;20012;-79
2022/08/09 11:56:14;;;;;;;0.70;0.70;;;23.70;99.90;;;;;;6160911;23;20016;-80
2022/08/09 11:58:52;;;;;;;1.58;0.85;;;24.70;99.90;;;;;;6160265;23;20047;-78
2022/08/09 12:01:38;;;;;;;0.82;0.77;;;24.80;99.90;;;;;;6184449;23;20020;-79
2022/08/09 12:04:10;;;;;;;0.90;0.70;;;25.20;99.90;;;;;;6159560;23;20013;-78
2022/08/09 12:06:37;;;;;;;0.90;0.75;;;24.80;99.90;;;;;;6183859;23;20012;-79
2022/08/09 12:09:08;;;;;;;2.35;0.80;;;24.40;99.90;;;;;;6135451;23;20044;-79
2022/08/09 12:11:35;;;;;;;1.15;1.05;;;24.90;99.90;;;;;;6159415;23;20009;-79
2022/08/09 12:14:08;;;;;;;0.73;0.73;;;23.90;99.90;;;;;;6185309;23;20768;-81
2022/08/09 12:16:41;;;;;;;1.23;1.00;;;24.70;99.90;;;;;;6134898;23;20013;-79
2022/08/09 12:19:09;;;;;;;0.98;0.80;;;24.80;99.90;;;;;;6184366;23;20247;-80
2022/08/09 12:21:43;;;;;;;1.17;0.70;;;24.40;99.90;;;;;;6135173;23;20020;-79
2022/08/09 12:24:10;;;;;;;1.05;0.90;;;24.90;99.90;;;;;;6184328;23;20013;-79
2022/08/09 12:26:50;;;;;;;1.10;0.70;;;24.90;99.90;;;;;;6135423;23;20100;-79
2022/08/09 12:29:20;;;;;;;2.25;0.80;;;24.40;99.90;;;;;;6184642;23;20020;-79
2022/08/09 12:31:48;;;;;;;0.70;0.70;;;24.10;99.90;;;;;;6184801;23;20009;-80
2022/08/09 12:34:34;;;;;;;0.80;0.80;;;23.60;99.90;;;;;;6184760;23;20024;-80
2022/08/09 12:37:02;;;;;;;1.75;1.10;;;24.30;99.90;;;;;;6184968;23;20377;-80
2022/08/09 12:39:28;;;;;;;1.48;0.90;;;24.30;99.90;;;;;;6159322;23;20024;-79
2022/08/09 12:41:54;;;;;;;0.80;0.80;;;25.00;99.90;;;;;;6159675;23;20147;-80
2022/08/09 12:44:20;;;;;;;1.42;0.80;;;24.70;99.90;;;;;;6185751;23;20056;-81
2022/08/09 12:46:48;;;;;;;5.30;0.95;;;25.20;99.90;;;;;;6137816;23;20008;-81
2022/08/09 12:49:14;;;;;;;0.75;0.75;;;25.50;99.90;;;;;;6137550;23;20015;-81
2022/08/09 12:51:40;;;;;;;0.77;0.70;;;25.20;99.90;;;;;;6137169;23;20087;-80